createdAt,value
2018-12-19T00:00:20.687Z,0.90
2018-12-19T00:02:48.168Z,0.90
2018-12-19T00:05:15.652Z,0.90
2018-12-19T00:07:43.686Z,0.90
2018-12-19T00:10:12.010Z,0.90
2018-12-19T00:12:39.776Z,0.90
2018-12-19T00:15:07.368Z,0.90
2018-12-19T00:17:35.256Z,1.00
2018-12-19T00:20:03.348Z,0.90
2018-12-19T00:22:30.820Z,0.90
2018-12-19T00:24:58.409Z,1.00
2018-12-19T00:27:26.608Z,0.90
2018-12-19T00:29:54.156Z,0.80
2018-12-19T00:32:21.622Z,0.90
2018-12-19T00:34:49.134Z,0.80
2018-12-19T00:37:16.618Z,0.90
2018-12-19T00:39:44.084Z,0.90
2018-12-19T00:42:11.562Z,0.90
2018-12-19T00:44:39.039Z,0.90
2018-12-19T00:47:06.519Z,1.00
2018-12-19T00:49:33.993Z,1.00
2018-12-19T00:52:01.512Z,1.00
2018-12-19T00:54:28.971Z,1.00
2018-12-19T00:56:56.698Z,1.00
2018-12-19T00:59:24.184Z,0.90
2018-12-19T01:01:51.686Z,1.20
2018-12-19T01:04:19.159Z,1.20
2018-12-19T01:06:46.646Z,1.10
2018-12-19T01:09:16.024Z,1.40
2018-12-19T01:11:43.671Z,1.00
2018-12-19T01:14:11.135Z,1.20
2018-12-19T01:16:38.614Z,1.40
2018-12-19T01:19:06.153Z,1.50
2018-12-19T01:21:33.635Z,1.50
2018-12-19T01:24:01.123Z,1.70
2018-12-19T01:26:28.610Z,1.60
2018-12-19T01:28:56.126Z,1.60
2018-12-19T01:31:23.599Z,1.30
2018-12-19T01:33:51.090Z,1.00
2018-12-19T01:36:18.598Z,1.00
2018-12-19T01:38:46.095Z,1.00
2018-12-19T01:41:13.562Z,1.30
2018-12-19T01:43:41.042Z,1.10
2018-12-19T01:46:08.518Z,1.30
2018-12-19T01:48:36.004Z,1.20
2018-12-19T01:51:03.534Z,1.10
2018-12-19T01:53:31.038Z,1.10
2018-12-19T01:55:58.864Z,0.80
2018-12-19T01:58:26.356Z,0.80
2018-12-19T02:00:53.883Z,1.00
2018-12-19T02:03:21.473Z,0.90
2018-12-19T02:05:49.044Z,1.00
2018-12-19T02:08:16.546Z,0.80
2018-12-19T02:10:44.033Z,0.80
2018-12-19T02:13:11.530Z,0.70
2018-12-19T02:15:39.006Z,0.60
2018-12-19T02:18:07.314Z,0.80
2018-12-19T02:20:34.772Z,0.60
2018-12-19T02:23:02.282Z,0.50
2018-12-19T02:25:29.760Z,0.50
2018-12-19T02:27:57.242Z,0.50
2018-12-19T02:30:24.732Z,0.40
2018-12-19T02:32:52.458Z,0.40
2018-12-19T02:35:20.109Z,0.50
2018-12-19T02:37:47.580Z,0.40
2018-12-19T02:40:15.073Z,0.50
2018-12-19T02:42:42.551Z,0.40
2018-12-19T02:45:10.132Z,0.50
2018-12-19T02:47:39.618Z,0.40
2018-12-19T02:50:07.104Z,0.40
2018-12-19T02:52:34.579Z,0.40
2018-12-19T02:55:02.796Z,0.40
2018-12-19T02:57:30.281Z,0.40
2018-12-19T02:59:58.756Z,0.40
2018-12-19T03:02:26.229Z,0.40
2018-12-19T03:04:53.724Z,0.40
2018-12-19T03:07:21.197Z,0.30
2018-12-19T03:09:48.688Z,0.30
2018-12-19T03:12:17.737Z,0.30
2018-12-19T03:14:45.224Z,0.30
2018-12-19T03:17:12.711Z,0.40
2018-12-19T03:19:41.114Z,0.40
2018-12-19T03:22:08.595Z,0.40
2018-12-19T03:24:37.078Z,0.40
2018-12-19T03:27:04.548Z,0.40
2018-12-19T03:29:32.044Z,0.40
2018-12-19T03:31:59.542Z,0.40
2018-12-19T03:34:27.004Z,0.40
2018-12-19T03:36:54.496Z,0.40
2018-12-19T03:39:21.982Z,0.30
2018-12-19T03:41:49.587Z,0.30
2018-12-19T03:44:17.081Z,0.30
2018-12-19T03:46:44.579Z,0.30
2018-12-19T03:49:12.770Z,0.30
2018-12-19T03:51:41.749Z,0.30
2018-12-19T03:54:09.225Z,0.30
2018-12-19T03:56:36.697Z,0.30
2018-12-19T03:59:04.260Z,0.30
2018-12-19T04:01:31.817Z,0.30
2018-12-19T04:03:59.291Z,0.30
2018-12-19T04:06:27.790Z,0.50
2018-12-19T04:08:55.273Z,0.40
2018-12-19T04:11:22.757Z,0.30
2018-12-19T04:13:50.240Z,0.30
2018-12-19T04:16:17.754Z,0.40
2018-12-19T04:18:45.229Z,0.40
2018-12-19T04:21:12.724Z,0.40
2018-12-19T04:23:40.172Z,0.30
2018-12-19T04:26:07.656Z,0.30
2018-12-19T04:28:35.137Z,0.30
2018-12-19T04:31:02.632Z,0.30
2018-12-19T04:33:30.100Z,0.40
2018-12-19T04:35:57.614Z,0.40
2018-12-19T04:38:26.048Z,0.40
2018-12-19T04:40:53.709Z,0.40
2018-12-19T04:43:21.237Z,0.50
2018-12-19T04:45:48.689Z,0.60
2018-12-19T04:48:17.063Z,0.50
2018-12-19T04:50:44.549Z,0.60
2018-12-19T04:53:12.031Z,0.80
2018-12-19T04:55:40.477Z,0.60
2018-12-19T04:58:08.057Z,0.70
2018-12-19T05:00:36.321Z,0.70
2018-12-19T05:03:03.869Z,0.80
2018-12-19T05:05:31.357Z,0.90
2018-12-19T05:07:58.841Z,0.90
2018-12-19T05:10:26.408Z,0.90
2018-12-19T05:12:53.983Z,0.80
2018-12-19T05:15:21.460Z,0.90
2018-12-19T05:17:48.974Z,0.90
2018-12-19T05:20:16.465Z,0.90
2018-12-19T05:22:43.916Z,0.90
2018-12-19T05:25:13.828Z,0.80
2018-12-19T05:27:41.292Z,0.80
2018-12-19T05:30:09.521Z,0.80
2018-12-19T05:32:37.106Z,0.90
2018-12-19T05:35:06.120Z,0.90
2018-12-19T05:37:33.691Z,0.80
2018-12-19T05:40:01.165Z,0.80
2018-12-19T05:42:28.657Z,0.70
2018-12-19T05:44:56.140Z,1.00
2018-12-19T05:47:23.692Z,1.00
2018-12-19T05:49:51.540Z,0.70
2018-12-19T05:52:20.994Z,0.70
2018-12-19T05:54:48.921Z,0.90
2018-12-19T05:57:17.965Z,0.90
2018-12-19T05:59:45.440Z,0.90
2018-12-19T06:02:12.911Z,1.00
2018-12-19T06:04:40.441Z,1.20
2018-12-19T06:07:07.920Z,1.10
2018-12-19T06:09:35.403Z,1.10
2018-12-19T06:12:02.901Z,1.40
2018-12-19T06:14:30.407Z,1.20
2018-12-19T06:16:57.949Z,1.10
2018-12-19T06:19:25.514Z,1.10
2018-12-19T06:21:53.117Z,1.00
2018-12-19T06:24:21.471Z,1.00
2018-12-19T06:26:49.132Z,1.00
2018-12-19T06:29:16.618Z,1.00
2018-12-19T06:31:44.092Z,1.10
2018-12-19T06:34:11.577Z,1.10
2018-12-19T06:36:39.061Z,1.20
2018-12-19T06:39:08.123Z,1.10
2018-12-19T06:41:35.669Z,1.10
2018-12-19T06:44:04.360Z,1.20
2018-12-19T06:46:31.883Z,1.30
2018-12-19T06:48:59.354Z,1.30
2018-12-19T06:51:28.507Z,1.30
2018-12-19T06:53:55.977Z,1.20
2018-12-19T06:56:23.500Z,1.30
2018-12-19T06:58:50.993Z,1.20
2018-12-19T07:01:18.469Z,1.30
2018-12-19T07:03:45.977Z,1.30
2018-12-19T07:06:13.495Z,1.30
2018-12-19T07:08:41.572Z,1.30
2018-12-19T07:11:09.177Z,1.40
2018-12-19T07:13:36.681Z,1.60
2018-12-19T07:16:04.169Z,1.60
2018-12-19T07:18:31.735Z,1.60
2018-12-19T07:20:59.789Z,1.70
2018-12-19T07:23:28.233Z,1.80
2018-12-19T07:25:55.725Z,1.80
2018-12-19T07:28:23.198Z,1.70
2018-12-19T07:30:50.703Z,1.80
2018-12-19T07:33:18.205Z,1.90
2018-12-19T07:35:45.688Z,1.90
2018-12-19T07:38:13.906Z,2.00
2018-12-19T07:40:45.577Z,2.20
2018-12-19T07:43:10.874Z,2.30
2018-12-19T07:45:38.359Z,2.30
2018-12-19T07:48:05.853Z,2.30
2018-12-19T07:50:33.360Z,2.30
2018-12-19T07:53:01.002Z,2.50
2018-12-19T07:55:30.445Z,2.60
2018-12-19T07:57:57.922Z,2.80
2018-12-19T08:00:27.599Z,2.80
2018-12-19T08:02:54.917Z,2.90
2018-12-19T08:05:26.066Z,2.90
2018-12-19T08:07:51.874Z,2.80
2018-12-19T08:10:19.382Z,2.80
2018-12-19T08:12:46.841Z,2.90
2018-12-19T08:15:14.322Z,2.90
2018-12-19T08:17:41.858Z,2.90
2018-12-19T08:20:10.257Z,2.90
2018-12-19T08:22:37.736Z,2.90
2018-12-19T08:25:05.338Z,2.90
2018-12-19T08:27:32.835Z,2.90
2018-12-19T08:30:00.331Z,3.00
2018-12-19T08:32:27.840Z,3.00
2018-12-19T08:34:55.325Z,3.10
2018-12-19T08:37:22.816Z,3.20
2018-12-19T08:39:50.287Z,3.20
2018-12-19T08:42:17.786Z,3.20
2018-12-19T08:44:45.257Z,3.20
2018-12-19T08:47:12.767Z,3.30
2018-12-19T08:49:40.241Z,3.20
2018-12-19T08:52:07.716Z,3.30
2018-12-19T08:54:35.427Z,3.30
2018-12-19T08:57:03.048Z,3.40
2018-12-19T08:59:30.545Z,3.40
2018-12-19T09:01:58.025Z,3.40
2018-12-19T09:04:25.895Z,3.40
2018-12-19T09:06:53.693Z,3.50
2018-12-19T09:09:21.164Z,3.50
2018-12-19T09:11:50.038Z,3.50
2018-12-19T09:14:17.944Z,3.70
2018-12-19T09:16:45.458Z,3.60
2018-12-19T09:19:12.985Z,3.60
2018-12-19T09:21:40.473Z,3.70
2018-12-19T09:24:07.937Z,3.60
2018-12-19T09:26:35.413Z,3.60
2018-12-19T09:29:02.881Z,3.60
2018-12-19T09:31:30.559Z,3.70
2018-12-19T09:33:58.039Z,3.70
2018-12-19T09:36:25.541Z,3.80
2018-12-19T09:38:53.041Z,3.90
2018-12-19T09:41:20.553Z,3.80
2018-12-19T09:43:48.041Z,3.70
2018-12-19T09:46:15.497Z,3.80
2018-12-19T09:48:42.985Z,3.80
2018-12-19T09:51:10.867Z,3.90
2018-12-19T09:53:38.358Z,3.80
2018-12-19T09:56:05.897Z,3.80
2018-12-19T09:58:33.397Z,4.00
2018-12-19T10:01:01.931Z,3.90
2018-12-19T10:03:29.812Z,3.90
2018-12-19T10:05:57.295Z,3.90
2018-12-19T10:08:24.833Z,3.90
2018-12-19T10:10:52.383Z,3.90
2018-12-19T10:13:19.879Z,3.90
2018-12-19T10:15:47.424Z,4.10
2018-12-19T10:18:14.923Z,4.00
2018-12-19T10:20:42.445Z,4.00
2018-12-19T10:23:09.933Z,4.00
2018-12-19T10:25:37.405Z,4.10
2018-12-19T10:28:04.882Z,4.10
2018-12-19T10:30:34.334Z,4.20
2018-12-19T10:33:01.832Z,4.20
2018-12-19T10:35:29.319Z,4.20
2018-12-19T10:37:56.814Z,4.20
2018-12-19T10:40:24.286Z,4.10
2018-12-19T10:42:51.788Z,4.20
2018-12-19T10:45:19.272Z,4.10
2018-12-19T10:47:46.763Z,4.20
2018-12-19T10:50:15.182Z,4.30
2018-12-19T10:52:42.686Z,4.30
2018-12-19T10:55:10.172Z,4.30
2018-12-19T10:57:37.656Z,4.30
2018-12-19T11:00:06.771Z,4.30
2018-12-19T11:02:34.272Z,4.50
2018-12-19T11:05:02.755Z,4.50
2018-12-19T11:07:30.249Z,4.50
2018-12-19T11:09:57.729Z,4.60
2018-12-19T11:12:25.222Z,4.60
2018-12-19T11:14:52.729Z,4.70
2018-12-19T11:17:20.198Z,4.70
2018-12-19T11:19:47.945Z,4.80
2018-12-19T11:22:15.422Z,4.90
2018-12-19T11:24:42.945Z,4.80
2018-12-19T11:27:10.485Z,4.90
2018-12-19T11:29:38.005Z,5.00
2018-12-19T11:32:05.501Z,5.00
2018-12-19T11:34:32.991Z,5.10
2018-12-19T11:37:00.643Z,5.20
2018-12-19T11:39:28.138Z,5.30
2018-12-19T11:41:55.613Z,5.30
2018-12-19T11:44:23.100Z,5.30
2018-12-19T11:46:50.567Z,5.30
2018-12-19T11:49:18.053Z,5.30
2018-12-19T11:51:45.540Z,5.30
2018-12-19T11:54:13.071Z,5.20
2018-12-19T11:56:40.633Z,5.20
2018-12-19T11:59:08.116Z,5.20
2018-12-19T12:01:41.144Z,5.30
2018-12-19T12:04:05.961Z,5.40
2018-12-19T12:06:33.519Z,5.50
2018-12-19T12:09:01.196Z,5.50
2018-12-19T12:11:28.677Z,5.60
2018-12-19T12:13:56.138Z,5.50
2018-12-19T12:16:23.636Z,5.50
2018-12-19T12:18:51.124Z,5.50
2018-12-19T12:21:18.607Z,5.50
2018-12-19T12:23:47.401Z,5.40
2018-12-19T12:26:15.204Z,5.40
2018-12-19T12:28:42.671Z,5.30
2018-12-19T12:31:10.163Z,5.10
2018-12-19T12:33:38.326Z,5.10
2018-12-19T12:36:06.047Z,5.00
2018-12-19T12:38:34.239Z,4.90
2018-12-19T12:41:01.886Z,4.80
2018-12-19T12:43:29.354Z,4.70
2018-12-19T12:45:56.850Z,4.70
2018-12-19T12:48:24.371Z,4.60
2018-12-19T12:50:51.869Z,4.60
2018-12-19T12:53:19.347Z,4.60
2018-12-19T12:55:46.842Z,4.60
2018-12-19T12:58:14.459Z,4.70
2018-12-19T13:00:41.945Z,4.70
2018-12-19T13:03:09.437Z,4.60
2018-12-19T13:05:37.014Z,4.70
2018-12-19T13:08:04.484Z,4.60
2018-12-19T13:10:36.284Z,4.50
2018-12-19T13:13:01.454Z,4.60
2018-12-19T13:15:45.490Z,4.50
2018-12-19T13:18:14.599Z,4.50
2018-12-19T13:20:42.404Z,4.40
2018-12-19T13:23:09.969Z,4.40
2018-12-19T13:25:37.532Z,4.50
2018-12-19T13:28:05.046Z,4.40
2018-12-19T13:30:32.527Z,4.40
2018-12-19T13:33:00.018Z,4.40
2018-12-19T13:35:27.489Z,4.30
2018-12-19T13:37:54.986Z,4.20
2018-12-19T13:40:22.536Z,4.20
2018-12-19T13:42:49.996Z,4.20
2018-12-19T13:45:17.465Z,4.20
2018-12-19T13:47:44.954Z,4.20
2018-12-19T13:50:12.432Z,4.10
2018-12-19T13:52:39.943Z,4.20
2018-12-19T13:55:07.473Z,4.30
2018-12-19T13:57:34.958Z,4.20
2018-12-19T14:00:02.496Z,4.20
2018-12-19T14:02:29.985Z,4.10
2018-12-19T14:04:57.460Z,4.10
2018-12-19T14:07:25.058Z,4.10
2018-12-19T14:09:52.959Z,4.00
2018-12-19T14:12:20.766Z,4.10
2018-12-19T14:14:48.224Z,3.90
2018-12-19T14:17:15.707Z,4.10
2018-12-19T14:19:43.246Z,4.10
2018-12-19T14:22:10.735Z,3.90
2018-12-19T14:24:38.243Z,4.00
2018-12-19T14:27:05.869Z,4.10
2018-12-19T14:29:33.350Z,4.00
2018-12-19T14:32:00.818Z,3.90
2018-12-19T14:34:28.295Z,4.00
2018-12-19T14:36:55.771Z,4.00
2018-12-19T14:39:23.258Z,4.00
2018-12-19T14:41:50.729Z,3.90
2018-12-19T14:44:18.195Z,4.00
2018-12-19T14:46:45.665Z,3.90
2018-12-19T14:49:14.056Z,4.00
2018-12-19T14:51:41.985Z,4.10
2018-12-19T14:54:09.556Z,4.00
2018-12-19T14:56:37.061Z,3.90
2018-12-19T14:59:04.724Z,3.90
2018-12-19T15:01:32.195Z,4.00
2018-12-19T15:03:59.682Z,4.00
2018-12-19T15:06:27.381Z,3.90
2018-12-19T15:08:54.871Z,4.00
2018-12-19T15:11:22.340Z,3.90
2018-12-19T15:13:49.884Z,3.90
2018-12-19T15:16:19.373Z,3.90
2018-12-19T15:18:46.845Z,3.90
2018-12-19T15:21:14.350Z,3.90
2018-12-19T15:23:41.849Z,3.80
2018-12-19T15:26:09.459Z,3.80
2018-12-19T15:28:37.027Z,3.90
2018-12-19T15:31:04.581Z,3.90
2018-12-19T15:33:32.067Z,3.90
2018-12-19T15:36:00.459Z,3.90
2018-12-19T15:38:27.945Z,3.90
2018-12-19T15:40:55.437Z,3.90
2018-12-19T15:43:22.929Z,3.90
2018-12-19T15:45:50.407Z,3.80
2018-12-19T15:48:17.903Z,3.90
2018-12-19T15:50:45.391Z,3.90
2018-12-19T15:53:12.869Z,3.90
2018-12-19T15:55:40.360Z,3.90
2018-12-19T15:58:08.913Z,3.90
2018-12-19T16:00:36.401Z,4.00
2018-12-19T16:03:04.703Z,3.90
2018-12-19T16:05:32.199Z,4.00
2018-12-19T16:07:59.672Z,4.00
2018-12-19T16:10:27.161Z,4.00
2018-12-19T16:12:54.662Z,3.90
2018-12-19T16:15:22.146Z,4.00
2018-12-19T16:17:49.795Z,4.10
2018-12-19T16:20:17.289Z,4.00
2018-12-19T16:22:44.791Z,4.10
2018-12-19T16:25:12.284Z,3.90
2018-12-19T16:27:39.778Z,4.00
2018-12-19T16:30:08.420Z,4.00
2018-12-19T16:32:35.927Z,3.90
2018-12-19T16:35:03.642Z,4.00
2018-12-19T16:37:31.134Z,4.10
2018-12-19T16:39:58.635Z,4.10
2018-12-19T16:42:26.210Z,4.00
2018-12-19T16:44:53.785Z,4.20
2018-12-19T16:47:22.350Z,4.20
2018-12-19T16:49:49.846Z,4.10
2018-12-19T16:52:17.323Z,4.10
2018-12-19T16:54:44.854Z,4.10
2018-12-19T16:57:12.334Z,4.10
2018-12-19T16:59:39.842Z,4.30
2018-12-19T17:02:07.316Z,4.10
2018-12-19T17:04:34.837Z,4.10
2018-12-19T17:07:02.318Z,4.10
2018-12-19T17:09:29.822Z,4.10
2018-12-19T17:11:57.307Z,4.20
2018-12-19T17:14:24.847Z,4.20
2018-12-19T17:16:52.321Z,4.10
2018-12-19T17:19:19.808Z,4.10
2018-12-19T17:21:47.298Z,4.20
2018-12-19T17:24:14.810Z,4.20
2018-12-19T17:26:42.269Z,4.20
2018-12-19T17:29:09.777Z,4.30
2018-12-19T17:31:37.265Z,4.30
2018-12-19T17:34:04.751Z,4.30
2018-12-19T17:36:32.287Z,4.30
2018-12-19T17:38:59.822Z,4.20
2018-12-19T17:41:27.293Z,4.30
2018-12-19T17:43:54.776Z,4.30
2018-12-19T17:46:22.282Z,4.30
2018-12-19T17:48:49.764Z,4.20
2018-12-19T17:51:17.238Z,4.20
2018-12-19T17:53:44.742Z,4.20
2018-12-19T17:56:12.247Z,4.20
2018-12-19T17:58:39.721Z,4.40
2018-12-19T18:01:07.224Z,4.30
2018-12-19T18:03:34.715Z,4.40
2018-12-19T18:06:02.248Z,4.30
2018-12-19T18:08:29.732Z,4.20
2018-12-19T18:10:57.294Z,4.50
2018-12-19T18:13:24.814Z,4.40
2018-12-19T18:15:52.293Z,4.30
2018-12-19T18:18:19.812Z,4.40
2018-12-19T18:20:47.312Z,4.40
2018-12-19T18:23:14.785Z,4.30
2018-12-19T18:25:42.594Z,4.30
2018-12-19T18:28:10.599Z,4.30
2018-12-19T18:30:38.217Z,4.50
2018-12-19T18:33:06.713Z,4.50
2018-12-19T18:35:34.249Z,4.60
2018-12-19T18:38:01.992Z,4.60
2018-12-19T18:40:30.653Z,4.50
2018-12-19T18:42:58.814Z,4.60
2018-12-19T18:45:26.336Z,4.50
2018-12-19T18:47:53.837Z,4.50
2018-12-19T18:50:21.307Z,4.50
2018-12-19T18:52:48.843Z,4.50
2018-12-19T18:55:16.339Z,4.50
2018-12-19T18:57:43.842Z,4.50
2018-12-19T19:00:11.471Z,4.60
2018-12-19T19:02:39.062Z,4.50
2018-12-19T19:05:06.670Z,4.40
2018-12-19T19:07:34.240Z,4.40
2018-12-19T19:10:01.843Z,4.40
2018-12-19T19:12:29.533Z,4.50
2018-12-19T19:14:57.057Z,4.60
2018-12-19T19:17:24.561Z,4.50
2018-12-19T19:19:52.128Z,4.50
2018-12-19T19:22:19.728Z,4.60
2018-12-19T19:24:47.293Z,4.50
2018-12-19T19:27:14.847Z,4.50
2018-12-19T19:29:42.353Z,4.50
2018-12-19T19:32:09.864Z,4.50
2018-12-19T19:34:38.242Z,4.50
2018-12-19T19:37:06.116Z,4.50
2018-12-19T19:39:33.676Z,4.60
2018-12-19T19:42:01.269Z,4.50
2018-12-19T19:44:28.848Z,4.50
2018-12-19T19:46:56.414Z,4.60
2018-12-19T19:49:23.947Z,4.60
2018-12-19T19:51:51.468Z,4.70
2018-12-19T19:54:18.970Z,4.60
2018-12-19T19:56:46.492Z,4.50
2018-12-19T19:59:14.021Z,4.60
2018-12-19T20:01:41.543Z,4.70
2018-12-19T20:04:09.103Z,4.60
2018-12-19T20:06:36.925Z,4.50
2018-12-19T20:09:07.518Z,4.50
2018-12-19T20:11:35.027Z,4.60
2018-12-19T20:14:02.532Z,4.50
2018-12-19T20:16:30.050Z,4.70
2018-12-19T20:18:57.596Z,4.60
2018-12-19T20:21:25.191Z,4.60
2018-12-19T20:23:52.751Z,4.70
2018-12-19T20:26:21.410Z,4.70
2018-12-19T20:28:48.985Z,4.80
2018-12-19T20:31:16.718Z,4.70
2018-12-19T20:33:44.315Z,4.70
2018-12-19T20:36:11.860Z,4.70
2018-12-19T20:38:39.488Z,4.70
2018-12-19T20:41:07.043Z,4.70
2018-12-19T20:43:39.956Z,4.70
2018-12-19T20:46:05.389Z,4.80
2018-12-19T20:48:32.964Z,4.70
2018-12-19T20:51:00.486Z,4.70
2018-12-19T20:53:27.992Z,4.80
2018-12-19T20:55:56.322Z,4.70
2018-12-19T20:58:23.915Z,4.70
2018-12-19T21:00:51.552Z,4.70
2018-12-19T21:03:19.066Z,4.80
2018-12-19T21:05:47.247Z,4.80
2018-12-19T21:08:14.769Z,4.90
2018-12-19T21:10:42.266Z,4.90
2018-12-19T21:13:09.768Z,4.80
2018-12-19T21:15:37.317Z,4.90
2018-12-19T21:18:10.559Z,4.80
2018-12-19T21:20:38.411Z,4.80
2018-12-19T21:23:06.367Z,4.80
2018-12-19T21:25:33.931Z,4.80
2018-12-19T21:28:01.425Z,4.90
2018-12-19T21:30:29.106Z,4.70
2018-12-19T21:32:56.591Z,4.60
2018-12-19T21:35:24.083Z,4.60
2018-12-19T21:37:51.827Z,4.60
2018-12-19T21:40:19.471Z,4.60
2018-12-19T21:42:47.078Z,4.60
2018-12-19T21:45:14.699Z,4.60
2018-12-19T21:47:42.353Z,4.50
2018-12-19T21:50:09.922Z,4.60
2018-12-19T21:52:37.635Z,4.60
2018-12-19T21:55:05.245Z,4.50
2018-12-19T21:57:33.077Z,4.50
2018-12-19T22:00:00.565Z,4.40
2018-12-19T22:02:28.211Z,4.40
2018-12-19T22:04:55.769Z,4.40
2018-12-19T22:07:23.541Z,4.30
2018-12-19T22:09:51.124Z,4.30
2018-12-19T22:12:18.685Z,4.30
2018-12-19T22:14:46.265Z,4.40
2018-12-19T22:20:21.770Z,4.20
2018-12-19T22:22:49.399Z,4.20
2018-12-19T22:25:16.944Z,4.20
2018-12-19T22:27:44.482Z,4.10
2018-12-19T22:30:12.030Z,4.10
2018-12-19T22:32:39.597Z,4.10
2018-12-19T22:35:07.064Z,4.10
2018-12-19T22:37:34.812Z,4.10
2018-12-19T22:40:04.120Z,4.10
2018-12-19T22:42:32.529Z,4.10
2018-12-19T22:45:00.010Z,4.20
2018-12-19T22:47:27.526Z,4.20
2018-12-19T22:50:05.594Z,4.20
2018-12-19T22:52:39.485Z,4.10
2018-12-19T22:55:07.598Z,4.10
2018-12-19T22:57:35.184Z,4.10
2018-12-19T23:00:04.764Z,4.20
2018-12-19T23:02:38.046Z,4.30
2018-12-19T23:05:06.514Z,4.10
2018-12-19T23:07:34.056Z,4.10
2018-12-19T23:10:01.650Z,4.10
2018-12-19T23:12:29.255Z,4.20
2018-12-19T23:14:57.236Z,4.30
2018-12-19T23:17:30.449Z,4.30
2018-12-19T23:19:58.066Z,4.20
2018-12-19T23:22:25.690Z,4.20
2018-12-19T23:24:53.243Z,4.20
2018-12-19T23:27:22.323Z,4.20
2018-12-19T23:29:49.918Z,4.30
2018-12-19T23:32:19.366Z,4.30
2018-12-19T23:34:46.858Z,4.40
2018-12-19T23:37:14.329Z,4.30
2018-12-19T23:39:41.868Z,4.20
2018-12-19T23:42:09.434Z,4.20
2018-12-19T23:44:37.004Z,4.40
2018-12-19T23:47:04.576Z,4.20
2018-12-19T23:49:32.297Z,4.10
2018-12-19T23:51:59.855Z,4.20
2018-12-19T23:54:29.171Z,4.10
2018-12-19T23:56:56.895Z,4.30
2018-12-19T23:59:24.442Z,4.30
